sensor_id;sensor_type;location;lat;lon;timestamp;P1;durP1;ratioP1;P2;durP2;ratioP2
22363;SDS011;11349;53.412;-1.328;2023-04-03T00:00:10;7.72;;;2.65;;
22363;SDS011;11349;53.412;-1.328;2023-04-03T00:02:37;8.80;;;2.78;;
22363;SDS011;11349;53.412;-1.328;2023-04-03T00:05:02;7.47;;;3.28;;
22363;SDS011;11349;53.412;-1.328;2023-04-03T00:07:29;9.32;;;3.65;;
22363;SDS011;11349;53.412;-1.328;2023-04-03T00:09:55;10.90;;;2.95;;
22363;SDS011;11349;53.412;-1.328;2023-04-03T00:12:21;9.60;;;3.10;;
22363;SDS011;11349;53.412;-1.328;2023-04-03T00:14:46;7.75;;;2.42;;
22363;SDS011;11349;53.412;-1.328;2023-04-03T00:17:12;7.78;;;2.08;;
22363;SDS011;11349;53.412;-1.328;2023-04-03T00:19:38;6.60;;;2.40;;
22363;SDS011;11349;53.412;-1.328;2023-04-03T00:22:03;9.10;;;2.45;;
22363;SDS011;11349;53.412;-1.328;2023-04-03T00:24:29;8.68;;;2.88;;
22363;SDS011;11349;53.412;-1.328;2023-04-03T00:26:55;10.32;;;2.55;;
22363;SDS011;11349;53.412;-1.328;2023-04-03T00:29:20;8.63;;;2.58;;
22363;SDS011;11349;53.412;-1.328;2023-04-03T00:31:46;7.68;;;2.55;;
22363;SDS011;11349;53.412;-1.328;2023-04-03T00:34:12;5.90;;;2.28;;
22363;SDS011;11349;53.412;-1.328;2023-04-03T00:36:38;6.75;;;2.15;;
22363;SDS011;11349;53.412;-1.328;2023-04-03T00:39:03;5.63;;;2.10;;
22363;SDS011;11349;53.412;-1.328;2023-04-03T00:41:29;8.93;;;2.30;;
22363;SDS011;11349;53.412;-1.328;2023-04-03T00:43:55;10.50;;;2.42;;
22363;SDS011;11349;53.412;-1.328;2023-04-03T00:46:21;10.05;;;2.65;;
22363;SDS011;11349;53.412;-1.328;2023-04-03T00:48:47;9.30;;;2.95;;
22363;SDS011;11349;53.412;-1.328;2023-04-03T00:51:17;8.18;;;2.58;;
22363;SDS011;11349;53.412;-1.328;2023-04-03T00:53:49;5.68;;;2.20;;
22363;SDS011;11349;53.412;-1.328;2023-04-03T00:56:19;8.48;;;2.58;;
22363;SDS011;11349;53.412;-1.328;2023-04-03T00:58:50;6.75;;;2.25;;
22363;SDS011;11349;53.412;-1.328;2023-04-03T01:01:24;4.63;;;2.00;;
22363;SDS011;11349;53.412;-1.328;2023-04-03T01:03:52;7.22;;;2.15;;
22363;SDS011;11349;53.412;-1.328;2023-04-03T01:06:20;9.30;;;2.35;;
22363;SDS011;11349;53.412;-1.328;2023-04-03T01:08:51;6.20;;;1.90;;
22363;SDS011;11349;53.412;-1.328;2023-04-03T01:11:17;6.38;;;2.10;;
22363;SDS011;11349;53.412;-1.328;2023-04-03T01:13:43;6.57;;;2.35;;
22363;SDS011;11349;53.412;-1.328;2023-04-03T01:16:09;8.35;;;2.40;;
22363;SDS011;11349;53.412;-1.328;2023-04-03T01:18:35;7.93;;;2.80;;
22363;SDS011;11349;53.412;-1.328;2023-04-03T01:24:22;5.32;;;2.10;;
22363;SDS011;11349;53.412;-1.328;2023-04-03T01:26:59;5.68;;;2.30;;
22363;SDS011;11349;53.412;-1.328;2023-04-03T01:29:27;10.48;;;2.40;;
22363;SDS011;11349;53.412;-1.328;2023-04-03T01:31:57;7.30;;;2.20;;
22363;SDS011;11349;53.412;-1.328;2023-04-03T01:34:24;6.45;;;1.92;;
22363;SDS011;11349;53.412;-1.328;2023-04-03T01:36:51;5.63;;;2.22;;
22363;SDS011;11349;53.412;-1.328;2023-04-03T01:39:17;6.07;;;2.13;;
22363;SDS011;11349;53.412;-1.328;2023-04-03T01:41:43;5.47;;;1.85;;
22363;SDS011;11349;53.412;-1.328;2023-04-03T01:44:10;5.43;;;2.55;;
22363;SDS011;11349;53.412;-1.328;2023-04-03T01:46:35;9.38;;;2.50;;
22363;SDS011;11349;53.412;-1.328;2023-04-03T01:49:02;8.50;;;2.53;;
22363;SDS011;11349;53.412;-1.328;2023-04-03T01:51:29;4.03;;;2.30;;
22363;SDS011;11349;53.412;-1.328;2023-04-03T01:53:55;7.07;;;2.58;;
22363;SDS011;11349;53.412;-1.328;2023-04-03T01:56:21;7.93;;;2.55;;
22363;SDS011;11349;53.412;-1.328;2023-04-03T01:58:47;6.13;;;2.10;;
22363;SDS011;11349;53.412;-1.328;2023-04-03T02:01:13;6.45;;;2.38;;
22363;SDS011;11349;53.412;-1.328;2023-04-03T02:03:38;7.10;;;2.53;;
22363;SDS011;11349;53.412;-1.328;2023-04-03T02:06:04;7.65;;;2.42;;
22363;SDS011;11349;53.412;-1.328;2023-04-03T02:08:30;5.97;;;2.20;;
22363;SDS011;11349;53.412;-1.328;2023-04-03T02:10:56;5.88;;;2.20;;
22363;SDS011;11349;53.412;-1.328;2023-04-03T02:13:22;9.38;;;2.97;;
22363;SDS011;11349;53.412;-1.328;2023-04-03T02:15:47;13.50;;;2.88;;
22363;SDS011;11349;53.412;-1.328;2023-04-03T02:18:14;6.03;;;2.38;;
22363;SDS011;11349;53.412;-1.328;2023-04-03T02:20:40;6.18;;;2.83;;
22363;SDS011;11349;53.412;-1.328;2023-04-03T02:23:05;6.20;;;2.70;;
22363;SDS011;11349;53.412;-1.328;2023-04-03T02:25:31;5.78;;;2.35;;
22363;SDS011;11349;53.412;-1.328;2023-04-03T02:27:57;7.22;;;2.28;;
22363;SDS011;11349;53.412;-1.328;2023-04-03T02:30:23;12.90;;;4.13;;
22363;SDS011;11349;53.412;-1.328;2023-04-03T02:32:49;7.72;;;3.47;;
22363;SDS011;11349;53.412;-1.328;2023-04-03T02:35:14;7.22;;;2.20;;
22363;SDS011;11349;53.412;-1.328;2023-04-03T02:37:40;5.40;;;2.15;;
22363;SDS011;11349;53.412;-1.328;2023-04-03T02:40:06;5.22;;;2.42;;
22363;SDS011;11349;53.412;-1.328;2023-04-03T02:42:32;4.30;;;2.20;;
22363;SDS011;11349;53.412;-1.328;2023-04-03T02:44:58;7.13;;;3.05;;
22363;SDS011;11349;53.412;-1.328;2023-04-03T02:47:26;5.97;;;2.42;;
22363;SDS011;11349;53.412;-1.328;2023-04-03T02:49:52;6.25;;;2.63;;
22363;SDS011;11349;53.412;-1.328;2023-04-03T02:52:18;8.05;;;2.53;;
22363;SDS011;11349;53.412;-1.328;2023-04-03T02:54:44;9.95;;;2.58;;
22363;SDS011;11349;53.412;-1.328;2023-04-03T02:57:10;5.30;;;2.28;;
22363;SDS011;11349;53.412;-1.328;2023-04-03T02:59:36;5.43;;;2.80;;
22363;SDS011;11349;53.412;-1.328;2023-04-03T03:02:05;7.88;;;3.22;;
22363;SDS011;11349;53.412;-1.328;2023-04-03T03:04:32;8.82;;;3.28;;
22363;SDS011;11349;53.412;-1.328;2023-04-03T03:06:58;13.10;;;4.95;;
22363;SDS011;11349;53.412;-1.328;2023-04-03T03:09:24;8.65;;;4.55;;
22363;SDS011;11349;53.412;-1.328;2023-04-03T03:11:50;9.77;;;4.78;;
22363;SDS011;11349;53.412;-1.328;2023-04-03T03:14:16;10.00;;;4.97;;
22363;SDS011;11349;53.412;-1.328;2023-04-03T03:16:42;17.52;;;4.75;;
22363;SDS011;11349;53.412;-1.328;2023-04-03T03:19:07;11.70;;;4.43;;
22363;SDS011;11349;53.412;-1.328;2023-04-03T03:21:33;11.07;;;5.13;;
22363;SDS011;11349;53.412;-1.328;2023-04-03T03:23:59;14.30;;;5.00;;
22363;SDS011;11349;53.412;-1.328;2023-04-03T03:26:25;8.77;;;4.57;;
22363;SDS011;11349;53.412;-1.328;2023-04-03T03:28:51;12.68;;;5.95;;
22363;SDS011;11349;53.412;-1.328;2023-04-03T03:31:17;14.82;;;5.72;;
22363;SDS011;11349;53.412;-1.328;2023-04-03T03:33:42;15.00;;;6.15;;
22363;SDS011;11349;53.412;-1.328;2023-04-03T03:36:08;16.23;;;7.50;;
22363;SDS011;11349;53.412;-1.328;2023-04-03T03:38:34;12.43;;;6.18;;
22363;SDS011;11349;53.412;-1.328;2023-04-03T03:41:00;12.75;;;5.32;;
22363;SDS011;11349;53.412;-1.328;2023-04-03T03:43:27;9.98;;;5.70;;
22363;SDS011;11349;53.412;-1.328;2023-04-03T03:45:52;13.02;;;5.70;;
22363;SDS011;11349;53.412;-1.328;2023-04-03T03:48:19;11.77;;;6.32;;
22363;SDS011;11349;53.412;-1.328;2023-04-03T03:50:46;13.35;;;6.15;;
22363;SDS011;11349;53.412;-1.328;2023-04-03T03:53:11;10.15;;;5.45;;
22363;SDS011;11349;53.412;-1.328;2023-04-03T03:55:37;10.73;;;6.05;;
22363;SDS011;11349;53.412;-1.328;2023-04-03T03:58:03;14.63;;;5.93;;
22363;SDS011;11349;53.412;-1.328;2023-04-03T04:00:29;15.65;;;6.95;;
22363;SDS011;11349;53.412;-1.328;2023-04-03T04:02:55;16.42;;;6.30;;
22363;SDS011;11349;53.412;-1.328;2023-04-03T04:05:21;12.27;;;6.88;;
22363;SDS011;11349;53.412;-1.328;2023-04-03T04:07:47;16.05;;;6.30;;
22363;SDS011;11349;53.412;-1.328;2023-04-03T04:10:13;14.85;;;6.22;;
22363;SDS011;11349;53.412;-1.328;2023-04-03T04:12:39;10.90;;;5.63;;
22363;SDS011;11349;53.412;-1.328;2023-04-03T04:15:05;9.18;;;5.10;;
22363;SDS011;11349;53.412;-1.328;2023-04-03T04:17:31;15.85;;;6.32;;
22363;SDS011;11349;53.412;-1.328;2023-04-03T04:19:57;12.98;;;6.13;;
22363;SDS011;11349;53.412;-1.328;2023-04-03T04:22:22;11.63;;;5.75;;
22363;SDS011;11349;53.412;-1.328;2023-04-03T04:24:48;10.77;;;5.65;;
22363;SDS011;11349;53.412;-1.328;2023-04-03T04:27:14;14.13;;;6.60;;
22363;SDS011;11349;53.412;-1.328;2023-04-03T04:29:41;13.60;;;6.45;;
22363;SDS011;11349;53.412;-1.328;2023-04-03T04:32:06;14.80;;;7.45;;
22363;SDS011;11349;53.412;-1.328;2023-04-03T04:34:33;13.23;;;7.07;;
22363;SDS011;11349;53.412;-1.328;2023-04-03T04:36:59;14.63;;;7.50;;
22363;SDS011;11349;53.412;-1.328;2023-04-03T04:39:25;17.95;;;8.20;;
22363;SDS011;11349;53.412;-1.328;2023-04-03T04:41:51;17.27;;;8.30;;
22363;SDS011;11349;53.412;-1.328;2023-04-03T04:44:17;15.50;;;8.32;;
22363;SDS011;11349;53.412;-1.328;2023-04-03T04:46:42;20.65;;;8.02;;
22363;SDS011;11349;53.412;-1.328;2023-04-03T04:49:08;15.55;;;7.65;;
22363;SDS011;11349;53.412;-1.328;2023-04-03T04:51:34;17.80;;;8.05;;
22363;SDS011;11349;53.412;-1.328;2023-04-03T04:54:00;14.18;;;8.05;;
22363;SDS011;11349;53.412;-1.328;2023-04-03T04:56:28;14.57;;;6.68;;
22363;SDS011;11349;53.412;-1.328;2023-04-03T04:58:53;14.82;;;8.20;;
22363;SDS011;11349;53.412;-1.328;2023-04-03T05:01:19;15.40;;;7.50;;
22363;SDS011;11349;53.412;-1.328;2023-04-03T05:03:45;17.88;;;7.93;;
22363;SDS011;11349;53.412;-1.328;2023-04-03T05:06:12;12.95;;;7.40;;
22363;SDS011;11349;53.412;-1.328;2023-04-03T05:08:38;13.23;;;7.07;;
22363;SDS011;11349;53.412;-1.328;2023-04-03T05:11:04;13.30;;;7.82;;
22363;SDS011;11349;53.412;-1.328;2023-04-03T05:13:30;17.73;;;8.00;;
22363;SDS011;11349;53.412;-1.328;2023-04-03T05:15:56;18.02;;;8.77;;
22363;SDS011;11349;53.412;-1.328;2023-04-03T05:18:22;15.13;;;6.90;;
22363;SDS011;11349;53.412;-1.328;2023-04-03T05:20:48;14.90;;;7.50;;
22363;SDS011;11349;53.412;-1.328;2023-04-03T05:23:15;13.38;;;6.40;;
22363;SDS011;11349;53.412;-1.328;2023-04-03T05:25:41;16.27;;;6.82;;
22363;SDS011;11349;53.412;-1.328;2023-04-03T05:28:08;15.40;;;7.18;;
22363;SDS011;11349;53.412;-1.328;2023-04-03T05:30:35;17.70;;;7.35;;
22363;SDS011;11349;53.412;-1.328;2023-04-03T05:33:00;17.20;;;7.88;;
22363;SDS011;11349;53.412;-1.328;2023-04-03T05:35:26;16.00;;;7.25;;
22363;SDS011;11349;53.412;-1.328;2023-04-03T05:37:52;12.70;;;6.28;;
22363;SDS011;11349;53.412;-1.328;2023-04-03T05:40:18;15.63;;;7.22;;
22363;SDS011;11349;53.412;-1.328;2023-04-03T05:42:44;13.43;;;7.40;;
22363;SDS011;11349;53.412;-1.328;2023-04-03T05:45:10;18.55;;;9.38;;
22363;SDS011;11349;53.412;-1.328;2023-04-03T05:47:36;14.32;;;7.63;;
22363;SDS011;11349;53.412;-1.328;2023-04-03T05:50:02;13.48;;;7.88;;
22363;SDS011;11349;53.412;-1.328;2023-04-03T05:52:33;15.60;;;8.20;;
22363;SDS011;11349;53.412;-1.328;2023-04-03T05:55:02;18.33;;;8.13;;
22363;SDS011;11349;53.412;-1.328;2023-04-03T05:57:29;20.90;;;9.20;;
22363;SDS011;11349;53.412;-1.328;2023-04-03T05:59:55;14.70;;;7.65;;
22363;SDS011;11349;53.412;-1.328;2023-04-03T06:02:21;16.63;;;8.95;;
22363;SDS011;11349;53.412;-1.328;2023-04-03T06:04:49;16.00;;;7.82;;
22363;SDS011;11349;53.412;-1.328;2023-04-03T06:07:17;20.25;;;10.35;;
22363;SDS011;11349;53.412;-1.328;2023-04-03T06:09:47;21.40;;;9.50;;
22363;SDS011;11349;53.412;-1.328;2023-04-03T06:12:14;19.55;;;8.60;;
22363;SDS011;11349;53.412;-1.328;2023-04-03T06:14:40;20.40;;;8.95;;
22363;SDS011;11349;53.412;-1.328;2023-04-03T06:17:06;19.55;;;9.77;;
22363;SDS011;11349;53.412;-1.328;2023-04-03T06:19:34;19.70;;;9.00;;
22363;SDS011;11349;53.412;-1.328;2023-04-03T06:22:00;17.45;;;9.65;;
22363;SDS011;11349;53.412;-1.328;2023-04-03T06:24:26;21.27;;;9.90;;
22363;SDS011;11349;53.412;-1.328;2023-04-03T06:26:52;17.95;;;9.52;;
22363;SDS011;11349;53.412;-1.328;2023-04-03T06:29:21;17.65;;;10.57;;
22363;SDS011;11349;53.412;-1.328;2023-04-03T06:31:47;20.38;;;11.63;;
22363;SDS011;11349;53.412;-1.328;2023-04-03T06:34:13;19.20;;;10.27;;
22363;SDS011;11349;53.412;-1.328;2023-04-03T06:36:40;22.05;;;10.95;;
22363;SDS011;11349;53.412;-1.328;2023-04-03T06:39:06;19.30;;;10.48;;
22363;SDS011;11349;53.412;-1.328;2023-04-03T06:41:33;22.33;;;12.43;;
22363;SDS011;11349;53.412;-1.328;2023-04-03T06:43:59;21.77;;;10.30;;
22363;SDS011;11349;53.412;-1.328;2023-04-03T06:46:25;20.20;;;10.48;;
22363;SDS011;11349;53.412;-1.328;2023-04-03T06:48:52;18.33;;;9.93;;
22363;SDS011;11349;53.412;-1.328;2023-04-03T06:51:18;23.38;;;10.68;;
22363;SDS011;11349;53.412;-1.328;2023-04-03T06:53:49;18.50;;;10.77;;
22363;SDS011;11349;53.412;-1.328;2023-04-03T06:56:16;19.40;;;12.05;;
22363;SDS011;11349;53.412;-1.328;2023-04-03T06:58:43;20.50;;;10.13;;
22363;SDS011;11349;53.412;-1.328;2023-04-03T07:01:10;16.67;;;10.15;;
22363;SDS011;11349;53.412;-1.328;2023-04-03T07:03:46;19.52;;;10.77;;
22363;SDS011;11349;53.412;-1.328;2023-04-03T07:06:16;22.85;;;10.88;;
22363;SDS011;11349;53.412;-1.328;2023-04-03T07:08:42;22.50;;;9.70;;
22363;SDS011;11349;53.412;-1.328;2023-04-03T07:11:09;18.80;;;8.70;;
22363;SDS011;11349;53.412;-1.328;2023-04-03T07:13:36;18.20;;;8.48;;
22363;SDS011;11349;53.412;-1.328;2023-04-03T07:16:02;17.10;;;9.55;;
22363;SDS011;11349;53.412;-1.328;2023-04-03T07:18:30;15.85;;;8.70;;
22363;SDS011;11349;53.412;-1.328;2023-04-03T07:20:56;19.27;;;7.85;;
22363;SDS011;11349;53.412;-1.328;2023-04-03T07:23:22;15.32;;;8.60;;
22363;SDS011;11349;53.412;-1.328;2023-04-03T07:25:49;13.02;;;7.65;;
22363;SDS011;11349;53.412;-1.328;2023-04-03T07:28:17;11.85;;;7.03;;
22363;SDS011;11349;53.412;-1.328;2023-04-03T07:33:11;14.63;;;7.68;;
22363;SDS011;11349;53.412;-1.328;2023-04-03T07:35:38;11.55;;;6.25;;
22363;SDS011;11349;53.412;-1.328;2023-04-03T07:38:04;15.05;;;6.60;;
22363;SDS011;11349;53.412;-1.328;2023-04-03T07:40:31;11.73;;;6.43;;
22363;SDS011;11349;53.412;-1.328;2023-04-03T07:42:57;11.95;;;5.90;;
22363;SDS011;11349;53.412;-1.328;2023-04-03T07:45:23;9.77;;;4.50;;
22363;SDS011;11349;53.412;-1.328;2023-04-03T07:47:49;16.17;;;5.18;;
22363;SDS011;11349;53.412;-1.328;2023-04-03T07:50:15;12.63;;;6.03;;
22363;SDS011;11349;53.412;-1.328;2023-04-03T07:52:41;11.98;;;4.95;;
22363;SDS011;11349;53.412;-1.328;2023-04-03T07:55:07;14.27;;;6.07;;
22363;SDS011;11349;53.412;-1.328;2023-04-03T07:57:33;12.20;;;5.10;;
22363;SDS011;11349;53.412;-1.328;2023-04-03T07:59:59;11.68;;;4.90;;
22363;SDS011;11349;53.412;-1.328;2023-04-03T08:02:25;15.13;;;6.68;;
22363;SDS011;11349;53.412;-1.328;2023-04-03T08:04:51;12.52;;;5.45;;
22363;SDS011;11349;53.412;-1.328;2023-04-03T08:07:17;17.33;;;4.63;;
22363;SDS011;11349;53.412;-1.328;2023-04-03T08:09:43;12.80;;;5.63;;
22363;SDS011;11349;53.412;-1.328;2023-04-03T08:12:09;11.82;;;5.15;;
22363;SDS011;11349;53.412;-1.328;2023-04-03T08:14:36;11.80;;;4.68;;
22363;SDS011;11349;53.412;-1.328;2023-04-03T08:17:02;11.45;;;4.43;;
22363;SDS011;11349;53.412;-1.328;2023-04-03T08:19:30;11.55;;;5.10;;
22363;SDS011;11349;53.412;-1.328;2023-04-03T08:21:56;12.60;;;5.32;;
22363;SDS011;11349;53.412;-1.328;2023-04-03T08:24:24;8.70;;;4.80;;
22363;SDS011;11349;53.412;-1.328;2023-04-03T08:26:50;9.10;;;3.97;;
22363;SDS011;11349;53.412;-1.328;2023-04-03T08:29:16;9.88;;;3.38;;
22363;SDS011;11349;53.412;-1.328;2023-04-03T08:31:42;8.43;;;3.55;;
22363;SDS011;11349;53.412;-1.328;2023-04-03T08:34:07;9.50;;;3.85;;
22363;SDS011;11349;53.412;-1.328;2023-04-03T08:36:33;9.75;;;2.88;;
22363;SDS011;11349;53.412;-1.328;2023-04-03T08:38:59;8.50;;;2.50;;
22363;SDS011;11349;53.412;-1.328;2023-04-03T08:46:47;6.68;;;1.80;;
22363;SDS011;11349;53.412;-1.328;2023-04-03T08:49:33;8.27;;;2.17;;
22363;SDS011;11349;53.412;-1.328;2023-04-03T08:52:00;8.60;;;1.67;;
22363;SDS011;11349;53.412;-1.328;2023-04-03T08:54:33;6.47;;;1.27;;
22363;SDS011;11349;53.412;-1.328;2023-04-03T08:57:06;5.32;;;1.15;;
22363;SDS011;11349;53.412;-1.328;2023-04-03T08:59:35;6.13;;;1.88;;
22363;SDS011;11349;53.412;-1.328;2023-04-03T09:02:04;5.00;;;1.13;;
22363;SDS011;11349;53.412;-1.328;2023-04-03T09:05:09;10.75;;;1.55;;
22363;SDS011;11349;53.412;-1.328;2023-04-03T09:07:49;11.98;;;1.63;;
22363;SDS011;11349;53.412;-1.328;2023-04-03T09:10:27;6.43;;;1.85;;
22363;SDS011;11349;53.412;-1.328;2023-04-03T09:13:00;8.02;;;2.10;;
22363;SDS011;11349;53.412;-1.328;2023-04-03T09:15:33;7.85;;;1.55;;
22363;SDS011;11349;53.412;-1.328;2023-04-03T09:18:42;5.82;;;1.17;;
22363;SDS011;11349;53.412;-1.328;2023-04-03T09:23:58;5.82;;;1.38;;
22363;SDS011;11349;53.412;-1.328;2023-04-03T09:26:26;5.32;;;1.25;;
22363;SDS011;11349;53.412;-1.328;2023-04-03T09:28:58;5.75;;;1.90;;
22363;SDS011;11349;53.412;-1.328;2023-04-03T09:31:29;4.43;;;1.33;;
22363;SDS011;11349;53.412;-1.328;2023-04-03T09:34:43;6.68;;;1.67;;
22363;SDS011;11349;53.412;-1.328;2023-04-03T09:36:56;7.70;;;1.63;;
22363;SDS011;11349;53.412;-1.328;2023-04-03T09:39:28;8.98;;;1.60;;
22363;SDS011;11349;53.412;-1.328;2023-04-03T09:41:56;7.68;;;1.15;;
22363;SDS011;11349;53.412;-1.328;2023-04-03T09:44:22;10.05;;;1.77;;
22363;SDS011;11349;53.412;-1.328;2023-04-03T09:46:50;10.55;;;1.40;;
22363;SDS011;11349;53.412;-1.328;2023-04-03T09:49:16;8.10;;;2.22;;
22363;SDS011;11349;53.412;-1.328;2023-04-03T09:51:43;6.43;;;2.15;;
22363;SDS011;11349;53.412;-1.328;2023-04-03T09:54:31;7.97;;;1.50;;
22363;SDS011;11349;53.412;-1.328;2023-04-03T09:57:09;9.73;;;1.70;;
22363;SDS011;11349;53.412;-1.328;2023-04-03T09:59:41;9.65;;;2.22;;
22363;SDS011;11349;53.412;-1.328;2023-04-03T10:04:41;7.03;;;1.88;;
22363;SDS011;11349;53.412;-1.328;2023-04-03T10:07:49;7.45;;;1.85;;
22363;SDS011;11349;53.412;-1.328;2023-04-03T10:09:59;4.97;;;1.35;;
22363;SDS011;11349;53.412;-1.328;2023-04-03T10:12:28;8.05;;;1.95;;
22363;SDS011;11349;53.412;-1.328;2023-04-03T10:14:58;5.97;;;1.73;;
22363;SDS011;11349;53.412;-1.328;2023-04-03T10:28:19;10.30;;;2.40;;
22363;SDS011;11349;53.412;-1.328;2023-04-03T10:31:06;6.60;;;1.45;;
22363;SDS011;11349;53.412;-1.328;2023-04-03T10:36:25;4.90;;;1.23;;
22363;SDS011;11349;53.412;-1.328;2023-04-03T10:47:22;8.38;;;1.63;;
22363;SDS011;11349;53.412;-1.328;2023-04-03T10:52:53;7.50;;;1.80;;
22363;SDS011;11349;53.412;-1.328;2023-04-03T10:55:35;3.78;;;1.40;;
22363;SDS011;11349;53.412;-1.328;2023-04-03T10:58:01;7.75;;;2.03;;
22363;SDS011;11349;53.412;-1.328;2023-04-03T11:00:36;7.70;;;2.15;;
22363;SDS011;11349;53.412;-1.328;2023-04-03T11:03:30;21.23;;;3.35;;
22363;SDS011;11349;53.412;-1.328;2023-04-03T11:06:02;9.98;;;1.67;;
22363;SDS011;11349;53.412;-1.328;2023-04-03T11:11:26;6.00;;;1.63;;
22363;SDS011;11349;53.412;-1.328;2023-04-03T11:13:57;8.13;;;1.52;;
22363;SDS011;11349;53.412;-1.328;2023-04-03T11:16:46;6.38;;;1.77;;
22363;SDS011;11349;53.412;-1.328;2023-04-03T11:19:35;7.35;;;1.70;;
22363;SDS011;11349;53.412;-1.328;2023-04-03T11:22:09;6.72;;;1.95;;
22363;SDS011;11349;53.412;-1.328;2023-04-03T11:24:36;10.10;;;1.95;;
22363;SDS011;11349;53.412;-1.328;2023-04-03T11:27:08;7.25;;;2.72;;
22363;SDS011;11349;53.412;-1.328;2023-04-03T11:29:41;7.57;;;1.60;;
22363;SDS011;11349;53.412;-1.328;2023-04-03T11:35:10;8.50;;;1.60;;
22363;SDS011;11349;53.412;-1.328;2023-04-03T11:37:44;6.03;;;1.35;;
22363;SDS011;11349;53.412;-1.328;2023-04-03T11:42:48;6.78;;;1.70;;
22363;SDS011;11349;53.412;-1.328;2023-04-03T11:50:45;6.18;;;2.10;;
22363;SDS011;11349;53.412;-1.328;2023-04-03T11:58:16;7.70;;;1.80;;
22363;SDS011;11349;53.412;-1.328;2023-04-03T12:18:59;6.15;;;1.60;;
22363;SDS011;11349;53.412;-1.328;2023-04-03T12:43:32;6.05;;;1.70;;
22363;SDS011;11349;53.412;-1.328;2023-04-03T12:48:53;9.35;;;2.15;;
22363;SDS011;11349;53.412;-1.328;2023-04-03T12:51:22;6.82;;;1.90;;
22363;SDS011;11349;53.412;-1.328;2023-04-03T12:54:00;8.90;;;1.88;;
22363;SDS011;11349;53.412;-1.328;2023-04-03T12:56:29;6.65;;;1.63;;
22363;SDS011;11349;53.412;-1.328;2023-04-03T12:59:12;6.57;;;1.73;;
22363;SDS011;11349;53.412;-1.328;2023-04-03T13:01:44;7.88;;;1.67;;
22363;SDS011;11349;53.412;-1.328;2023-04-03T13:04:17;6.57;;;1.98;;
22363;SDS011;11349;53.412;-1.328;2023-04-03T13:06:43;8.45;;;1.90;;
22363;SDS011;11349;53.412;-1.328;2023-04-03T13:11:46;4.75;;;1.80;;
22363;SDS011;11349;53.412;-1.328;2023-04-03T13:14:24;5.68;;;2.10;;
22363;SDS011;11349;53.412;-1.328;2023-04-03T13:16:52;6.68;;;2.03;;
22363;SDS011;11349;53.412;-1.328;2023-04-03T13:19:22;9.05;;;1.85;;
22363;SDS011;11349;53.412;-1.328;2023-04-03T13:21:57;5.20;;;1.55;;
22363;SDS011;11349;53.412;-1.328;2023-04-03T13:24:28;6.18;;;1.77;;
22363;SDS011;11349;53.412;-1.328;2023-04-03T13:26:56;7.68;;;2.30;;
22363;SDS011;11349;53.412;-1.328;2023-04-03T13:29:26;8.18;;;2.28;;
22363;SDS011;11349;53.412;-1.328;2023-04-03T13:31:54;6.70;;;2.20;;
22363;SDS011;11349;53.412;-1.328;2023-04-03T13:34:22;5.38;;;1.80;;
22363;SDS011;11349;53.412;-1.328;2023-04-03T13:41:55;6.95;;;1.80;;
22363;SDS011;11349;53.412;-1.328;2023-04-03T13:44:26;5.25;;;1.63;;
22363;SDS011;11349;53.412;-1.328;2023-04-03T13:47:00;7.38;;;2.35;;
22363;SDS011;11349;53.412;-1.328;2023-04-03T13:49:44;11.55;;;2.00;;
22363;SDS011;11349;53.412;-1.328;2023-04-03T13:52:30;7.50;;;1.95;;
22363;SDS011;11349;53.412;-1.328;2023-04-03T13:55:15;7.78;;;2.25;;
22363;SDS011;11349;53.412;-1.328;2023-04-03T13:58:00;9.98;;;1.77;;
22363;SDS011;11349;53.412;-1.328;2023-04-03T14:05:56;7.72;;;1.60;;
22363;SDS011;11349;53.412;-1.328;2023-04-03T14:08:22;8.38;;;2.28;;
22363;SDS011;11349;53.412;-1.328;2023-04-03T14:10:48;6.57;;;1.63;;
22363;SDS011;11349;53.412;-1.328;2023-04-03T14:13:15;7.05;;;2.17;;
22363;SDS011;11349;53.412;-1.328;2023-04-03T14:15:42;5.43;;;1.50;;
22363;SDS011;11349;53.412;-1.328;2023-04-03T14:18:12;5.70;;;1.60;;
22363;SDS011;11349;53.412;-1.328;2023-04-03T14:20:40;5.43;;;1.52;;
22363;SDS011;11349;53.412;-1.328;2023-04-03T14:23:06;5.80;;;1.80;;
22363;SDS011;11349;53.412;-1.328;2023-04-03T14:25:32;6.15;;;1.77;;
22363;SDS011;11349;53.412;-1.328;2023-04-03T14:27:59;5.22;;;1.92;;
22363;SDS011;11349;53.412;-1.328;2023-04-03T14:32:52;6.22;;;2.20;;
22363;SDS011;11349;53.412;-1.328;2023-04-03T14:35:19;6.65;;;1.90;;
22363;SDS011;11349;53.412;-1.328;2023-04-03T14:37:47;7.13;;;2.05;;
22363;SDS011;11349;53.412;-1.328;2023-04-03T14:40:14;6.38;;;2.17;;
22363;SDS011;11349;53.412;-1.328;2023-04-03T14:42:43;4.55;;;1.67;;
22363;SDS011;11349;53.412;-1.328;2023-04-03T14:45:10;6.57;;;1.80;;
22363;SDS011;11349;53.412;-1.328;2023-04-03T14:47:39;7.82;;;1.95;;
22363;SDS011;11349;53.412;-1.328;2023-04-03T14:50:26;7.30;;;2.15;;
22363;SDS011;11349;53.412;-1.328;2023-04-03T14:52:54;8.00;;;1.98;;
22363;SDS011;11349;53.412;-1.328;2023-04-03T14:55:23;6.55;;;1.90;;
22363;SDS011;11349;53.412;-1.328;2023-04-03T14:57:50;6.22;;;1.90;;
22363;SDS011;11349;53.412;-1.328;2023-04-03T15:00:18;9.63;;;2.17;;
22363;SDS011;11349;53.412;-1.328;2023-04-03T15:02:45;9.63;;;3.05;;
22363;SDS011;11349;53.412;-1.328;2023-04-03T15:05:12;7.85;;;2.00;;
22363;SDS011;11349;53.412;-1.328;2023-04-03T15:07:43;7.10;;;2.63;;
22363;SDS011;11349;53.412;-1.328;2023-04-03T15:12:39;6.25;;;2.08;;
22363;SDS011;11349;53.412;-1.328;2023-04-03T15:15:05;4.13;;;1.90;;
22363;SDS011;11349;53.412;-1.328;2023-04-03T15:17:31;5.50;;;1.98;;
22363;SDS011;11349;53.412;-1.328;2023-04-03T15:19:58;6.80;;;2.80;;
22363;SDS011;11349;53.412;-1.328;2023-04-03T15:22:24;6.03;;;2.28;;
22363;SDS011;11349;53.412;-1.328;2023-04-03T15:24:50;6.60;;;2.05;;
22363;SDS011;11349;53.412;-1.328;2023-04-03T15:27:16;5.93;;;2.25;;
22363;SDS011;11349;53.412;-1.328;2023-04-03T15:29:42;8.90;;;2.42;;
22363;SDS011;11349;53.412;-1.328;2023-04-03T15:32:08;6.30;;;2.03;;
22363;SDS011;11349;53.412;-1.328;2023-04-03T15:34:34;6.20;;;2.00;;
22363;SDS011;11349;53.412;-1.328;2023-04-03T15:37:01;5.45;;;1.77;;
22363;SDS011;11349;53.412;-1.328;2023-04-03T15:39:26;5.95;;;2.13;;
22363;SDS011;11349;53.412;-1.328;2023-04-03T15:41:53;9.70;;;2.38;;
22363;SDS011;11349;53.412;-1.328;2023-04-03T15:44:20;6.70;;;2.28;;
22363;SDS011;11349;53.412;-1.328;2023-04-03T15:46:46;6.40;;;2.45;;
22363;SDS011;11349;53.412;-1.328;2023-04-03T15:49:14;5.43;;;2.13;;
22363;SDS011;11349;53.412;-1.328;2023-04-03T15:51:40;5.03;;;2.03;;
22363;SDS011;11349;53.412;-1.328;2023-04-03T15:54:06;6.25;;;1.95;;
22363;SDS011;11349;53.412;-1.328;2023-04-03T15:56:31;5.15;;;2.05;;
22363;SDS011;11349;53.412;-1.328;2023-04-03T15:58:57;6.35;;;1.98;;
22363;SDS011;11349;53.412;-1.328;2023-04-03T16:01:23;10.05;;;2.50;;
22363;SDS011;11349;53.412;-1.328;2023-04-03T16:03:49;7.65;;;2.58;;
22363;SDS011;11349;53.412;-1.328;2023-04-03T16:06:16;7.47;;;2.05;;
22363;SDS011;11349;53.412;-1.328;2023-04-03T16:08:43;5.50;;;2.03;;
22363;SDS011;11349;53.412;-1.328;2023-04-03T16:11:09;8.20;;;2.72;;
22363;SDS011;11349;53.412;-1.328;2023-04-03T16:13:36;5.03;;;2.50;;
22363;SDS011;11349;53.412;-1.328;2023-04-03T16:16:02;6.97;;;2.63;;
22363;SDS011;11349;53.412;-1.328;2023-04-03T16:18:29;4.78;;;2.38;;
22363;SDS011;11349;53.412;-1.328;2023-04-03T16:20:55;5.47;;;2.10;;
22363;SDS011;11349;53.412;-1.328;2023-04-03T16:23:21;11.80;;;3.88;;
22363;SDS011;11349;53.412;-1.328;2023-04-03T16:25:47;6.88;;;3.67;;
22363;SDS011;11349;53.412;-1.328;2023-04-03T16:28:15;7.47;;;2.20;;
22363;SDS011;11349;53.412;-1.328;2023-04-03T16:30:44;6.40;;;2.42;;
22363;SDS011;11349;53.412;-1.328;2023-04-03T16:33:12;7.15;;;2.42;;
22363;SDS011;11349;53.412;-1.328;2023-04-03T16:35:38;7.63;;;2.90;;